createdAt,value
2023-03-20T00:00:03.140Z,7
2023-03-20T00:05:02.983Z,6.9
2023-03-20T00:10:02.950Z,6.84
2023-03-20T00:15:02.701Z,7.06
2023-03-20T00:20:02.695Z,7.22
2023-03-20T00:25:02.504Z,7.47
2023-03-20T00:30:02.316Z,7.43
2023-03-20T00:35:02.195Z,7.37
2023-03-20T00:40:02.909Z,7.5
2023-03-20T00:45:02.713Z,7.4
2023-03-20T00:50:02.442Z,7.12
2023-03-20T00:55:03.704Z,7.16
2023-03-20T01:00:02.845Z,7.03
2023-03-20T01:05:02.504Z,6.97
2023-03-20T01:10:02.424Z,7.25
2023-03-20T01:15:02.388Z,7.46
2023-03-20T01:20:03.073Z,7.63
2023-03-20T01:25:03.060Z,7.66
2023-03-20T01:30:02.773Z,7.58
2023-03-20T01:35:02.513Z,7.73
2023-03-20T01:40:02.829Z,7.54
2023-03-20T01:45:02.810Z,7.13
2023-03-20T01:50:02.479Z,7.28
2023-03-20T01:55:03.760Z,7.13
2023-03-20T02:00:03.031Z,7.08
2023-03-20T02:05:02.845Z,7.23
2023-03-20T02:10:02.480Z,7.27
2023-03-20T02:15:02.729Z,7.23
2023-03-20T02:20:02.462Z,7.31
2023-03-20T02:25:02.365Z,7.27
2023-03-20T02:30:03.056Z,7.13
2023-03-20T02:35:02.990Z,6.98
2023-03-20T02:40:02.784Z,7
2023-03-20T02:45:02.441Z,6.92
2023-03-20T02:50:02.183Z,6.79
2023-03-20T02:55:03.790Z,6.83
2023-03-20T03:00:02.597Z,6.77
2023-03-20T03:05:02.251Z,6.6
2023-03-20T03:10:02.970Z,6.44
2023-03-20T03:15:03.086Z,6.41
2023-03-20T03:20:02.552Z,6.41
2023-03-20T03:25:02.476Z,6.19
2023-03-20T03:30:02.402Z,6.03
2023-03-20T03:35:02.310Z,5.77
2023-03-20T03:40:02.371Z,5.64
2023-03-20T03:45:02.381Z,5.52
2023-03-20T03:50:03.015Z,5.64
2023-03-20T03:55:03.350Z,5.78
2023-03-20T04:00:02.568Z,5.67
2023-03-20T04:05:02.587Z,5.75
2023-03-20T04:10:03.048Z,5.72
2023-03-20T04:15:03.624Z,5.7
2023-03-20T04:20:02.862Z,5.88
2023-03-20T04:25:02.659Z,5.88
2023-03-20T04:30:02.393Z,6.08
2023-03-20T04:35:03.123Z,6.55
2023-03-20T04:40:02.957Z,6.68
2023-03-20T04:45:02.805Z,6.76
2023-03-20T04:50:02.972Z,6.79
2023-03-20T04:55:03.482Z,6.85
2023-03-20T05:00:02.469Z,6.89
2023-03-20T05:05:03.184Z,6.95
2023-03-20T05:10:02.899Z,7.11
2023-03-20T05:15:02.678Z,7.22
2023-03-20T05:20:02.471Z,7.33
2023-03-20T05:25:02.473Z,7.35
2023-03-20T05:30:03.140Z,7.39
2023-03-20T05:35:02.969Z,7.39
2023-03-20T05:40:02.936Z,7.36
2023-03-20T05:45:02.854Z,7.34
2023-03-20T05:50:02.620Z,7.34
2023-03-20T05:55:02.992Z,7.42
2023-03-20T06:00:03.227Z,7.63
2023-03-20T06:05:03.001Z,7.76
2023-03-20T06:10:02.834Z,7.83
2023-03-20T06:15:02.605Z,7.86
2023-03-20T06:20:02.635Z,7.84
2023-03-20T06:25:02.582Z,7.82
2023-03-20T06:30:02.465Z,8.06
2023-03-20T06:35:02.988Z,8.09
2023-03-20T06:40:03.095Z,8.25
2023-03-20T06:45:03.185Z,8.32
2023-03-20T06:50:02.839Z,8.52
2023-03-20T07:00:02.504Z,8.53
2023-03-20T07:05:03.512Z,8.49
2023-03-20T07:15:02.625Z,8.44
2023-03-20T07:20:02.352Z,8.37
2023-03-20T07:25:03.009Z,8.32
2023-03-20T07:30:02.980Z,8.33
2023-03-20T07:35:02.633Z,8.44
2023-03-20T07:40:02.669Z,8.58
2023-03-20T07:45:03.217Z,8.73
2023-03-20T07:50:02.891Z,8.82
2023-03-20T07:55:03.642Z,9.01
2023-03-20T08:00:02.369Z,8.87
2023-03-20T08:05:03.015Z,8.96
2023-03-20T08:10:03.024Z,8.88
2023-03-20T08:15:02.635Z,8.88
2023-03-20T08:20:02.607Z,8.83
2023-03-20T08:25:02.407Z,8.78
2023-03-20T08:30:03.224Z,8.67
2023-03-20T08:35:02.901Z,8.56
2023-03-20T08:40:02.901Z,8.38
2023-03-20T08:45:02.403Z,8.31
2023-03-20T08:50:03.101Z,8.28
2023-03-20T08:55:03.367Z,8.29
2023-03-20T09:00:02.482Z,8.41
2023-03-20T09:05:03.192Z,9.05
2023-03-20T09:10:02.230Z,9.44
2023-03-20T09:15:03.067Z,9.48
2023-03-20T09:20:02.940Z,9.53
2023-03-20T09:25:02.619Z,9.58
2023-03-20T09:30:02.681Z,10.14
2023-03-20T09:35:03.284Z,10.16
2023-03-20T09:40:02.911Z,9.89
2023-03-20T09:45:03.031Z,9.98
2023-03-20T09:50:02.955Z,10.06
2023-03-20T09:55:03.983Z,10.22
2023-03-20T10:00:02.676Z,10.28
2023-03-20T10:05:03.419Z,10.01
2023-03-20T10:10:03.038Z,10.08
2023-03-20T10:15:03.016Z,9.88
2023-03-20T10:20:02.724Z,9.9
2023-03-20T10:25:02.577Z,9.91
2023-03-20T10:30:02.288Z,9.93
2023-03-20T10:35:03.059Z,9.89
2023-03-20T10:40:03.105Z,10.03
2023-03-20T10:45:03.108Z,10.03
2023-03-20T10:50:02.583Z,10.07
2023-03-20T10:55:03.344Z,10.21
2023-03-20T11:00:03.190Z,9.71
2023-03-20T11:05:02.830Z,9.93
2023-03-20T11:10:02.623Z,9.86
2023-03-20T11:15:02.397Z,9.9
2023-03-20T11:20:02.235Z,9.99
2023-03-20T11:25:02.958Z,10.03
2023-03-20T11:30:02.696Z,9.96
2023-03-20T11:35:02.452Z,9.81
2023-03-20T11:40:02.231Z,9.9
2023-03-20T11:45:02.980Z,10.02
2023-03-20T11:50:02.817Z,10.26
2023-03-20T11:55:03.654Z,10.2
2023-03-20T12:00:02.550Z,10.23
2023-03-20T12:05:02.262Z,10.38
2023-03-20T12:10:03.163Z,10.44
2023-03-20T12:15:02.795Z,10.54
2023-03-20T12:20:02.477Z,10.35
2023-03-20T12:25:02.340Z,9.76
2023-03-20T12:30:03.238Z,9.56
2023-03-20T12:35:03.009Z,9.26
2023-03-20T12:45:02.842Z,9.08
2023-03-20T12:50:02.400Z,9.09
2023-03-20T12:55:03.780Z,9.13
2023-03-20T13:00:02.840Z,9.12
2023-03-20T13:05:02.659Z,9.16
2023-03-20T13:10:02.529Z,9.29
2023-03-20T13:15:02.337Z,9.23
2023-03-20T13:20:03.094Z,9.1
2023-03-20T13:25:02.897Z,9.17
2023-03-20T13:30:02.706Z,9.39
2023-03-20T13:35:02.505Z,9.11
2023-03-20T13:40:02.393Z,9.34
2023-03-20T13:45:02.382Z,9.42
2023-03-20T13:50:03.025Z,9.5
2023-03-20T13:55:03.429Z,9.81
2023-03-20T14:00:02.545Z,9.73
2023-03-20T14:05:02.345Z,9.73
2023-03-20T14:10:02.370Z,9.94
2023-03-20T14:15:02.404Z,9.95
2023-03-20T14:20:02.215Z,9.92
2023-03-20T14:25:02.933Z,9.92
2023-03-20T14:30:02.781Z,10.28
2023-03-20T14:35:02.887Z,10.43
2023-03-20T14:40:02.724Z,10.22
2023-03-20T14:45:02.745Z,10.3
2023-03-20T14:50:02.426Z,9.99
2023-03-20T14:55:04.100Z,9.99
2023-03-20T15:00:03.108Z,10.1
2023-03-20T15:05:02.918Z,10.3
2023-03-20T15:10:02.654Z,10.14
2023-03-20T15:15:02.471Z,10.04
2023-03-20T15:20:03.173Z,10.2
2023-03-20T15:25:02.793Z,10.28
2023-03-20T15:30:02.636Z,10.31
2023-03-20T15:35:02.362Z,10.11
2023-03-20T15:40:03.176Z,10.1
2023-03-20T15:45:02.936Z,10.03
2023-03-20T15:50:02.705Z,10.06
2023-03-20T15:55:02.802Z,10.09
2023-03-20T16:00:03.178Z,10.09
2023-03-20T16:05:03.086Z,10.01
2023-03-20T16:10:02.722Z,10.01
2023-03-20T16:15:02.516Z,10.01
2023-03-20T16:20:02.358Z,9.98
2023-03-20T16:25:03.018Z,9.95
2023-03-20T16:30:02.790Z,9.95
2023-03-20T16:35:02.658Z,9.9
2023-03-20T16:40:02.483Z,9.86
2023-03-20T16:45:02.232Z,9.8
2023-03-20T16:50:03.106Z,9.69
2023-03-20T16:55:02.860Z,9.65
2023-03-20T17:00:03.082Z,9.67
2023-03-20T17:05:02.918Z,9.69
2023-03-20T17:10:03.004Z,9.76
2023-03-20T17:15:03.310Z,9.76
2023-03-20T17:20:02.781Z,9.66
2023-03-20T17:25:02.866Z,9.54
2023-03-20T17:30:02.926Z,9.03
2023-03-20T17:35:02.506Z,9.02
2023-03-20T17:40:02.236Z,8.97
2023-03-20T17:45:02.984Z,8.63
2023-03-20T17:50:02.851Z,8.37
2023-03-20T17:55:03.123Z,8.28
2023-03-20T18:00:02.828Z,8.31
2023-03-20T18:05:02.871Z,8.11
2023-03-20T18:10:02.535Z,7.85
2023-03-20T18:15:02.312Z,7.54
2023-03-20T18:20:02.351Z,7.32
2023-03-20T18:25:02.997Z,7.33
2023-03-20T18:30:02.690Z,7.33
2023-03-20T18:35:02.351Z,7.3
2023-03-20T18:40:03.128Z,6.88
2023-03-20T18:45:02.993Z,6.73
2023-03-20T18:50:02.725Z,6.74
2023-03-20T18:55:03.599Z,6.76
2023-03-20T19:00:02.480Z,6.78
2023-03-20T19:05:02.281Z,6.97
2023-03-20T19:10:03.017Z,6.99
2023-03-20T19:15:02.789Z,6.94
2023-03-20T19:20:02.569Z,6.9
2023-03-20T19:25:02.296Z,6.74
2023-03-20T19:30:03.068Z,6.75
2023-03-20T19:35:41.195Z,6.85
2023-03-20T19:40:02.658Z,6.84
2023-03-20T19:45:02.626Z,6.72
2023-03-20T19:50:02.455Z,6.89
2023-03-20T19:55:04.462Z,6.86
2023-03-20T20:01:13.211Z,6.74
2023-03-20T20:05:02.741Z,6.78
2023-03-20T20:10:02.424Z,7.03
2023-03-20T20:15:03.237Z,7.1
2023-03-20T20:20:02.171Z,7.06
2023-03-20T20:25:02.946Z,6.86
2023-03-20T20:30:02.702Z,6.66
2023-03-20T20:40:02.762Z,6.63
2023-03-20T20:45:02.620Z,6.59
2023-03-20T20:50:02.302Z,6.49
2023-03-20T20:55:25.697Z,6.65
2023-03-20T21:00:02.992Z,6.74
2023-03-20T21:05:02.766Z,6.83
2023-03-20T21:10:02.579Z,7.02
2023-03-20T21:15:02.497Z,7.16
2023-03-20T21:20:02.398Z,7.17
2023-03-20T21:25:13.739Z,7.02
2023-03-20T21:30:03.099Z,6.87
2023-03-20T21:35:02.815Z,6.84
2023-03-20T21:40:02.511Z,6.81
2023-03-20T21:45:58.943Z,6.71
2023-03-20T21:50:46.334Z,6.58
2023-03-20T22:00:50.962Z,6.22
2023-03-20T22:05:43.287Z,6.09
2023-03-20T22:15:46.556Z,5.86
2023-03-20T22:30:53.578Z,5.85
2023-03-20T22:35:47.041Z,5.82
2023-03-20T22:45:04.214Z,6.12
2023-03-20T22:50:02.941Z,6.24
2023-03-20T22:55:03.314Z,6.31
2023-03-20T23:00:02.923Z,6.56
2023-03-20T23:05:02.382Z,6.48
2023-03-20T23:10:03.138Z,6.46
2023-03-20T23:15:03.016Z,6.42
2023-03-20T23:20:11.167Z,6.36
2023-03-20T23:25:13.232Z,6.36
2023-03-20T23:30:02.929Z,6.36
2023-03-20T23:35:02.574Z,6.34
2023-03-20T23:40:02.671Z,6.34
2023-03-20T23:45:13.586Z,6.48
2023-03-20T23:50:03.048Z,6.71
2023-03-20T23:55:03.501Z,6.89
